sensor_id;sensor_type;location;lat;lon;timestamp;P1;durP1;ratioP1;P2;durP2;ratioP2
6280;SDS011;3173;48.204;11.612;2024-03-08T00:00:34;18.17;;;10.87;;
6280;SDS011;3173;48.204;11.612;2024-03-08T00:03:00;16.70;;;10.07;;
6280;SDS011;3173;48.204;11.612;2024-03-08T00:05:27;18.87;;;11.43;;
6280;SDS011;3173;48.204;11.612;2024-03-08T00:07:53;23.57;;;11.60;;
6280;SDS011;3173;48.204;11.612;2024-03-08T00:10:19;19.13;;;10.97;;
6280;SDS011;3173;48.204;11.612;2024-03-08T00:12:46;21.90;;;11.43;;
6280;SDS011;3173;48.204;11.612;2024-03-08T00:15:13;21.47;;;11.00;;
6280;SDS011;3173;48.204;11.612;2024-03-08T00:17:39;18.10;;;10.93;;
6280;SDS011;3173;48.204;11.612;2024-03-08T00:20:06;19.73;;;10.10;;
6280;SDS011;3173;48.204;11.612;2024-03-08T00:22:36;18.67;;;10.80;;
6280;SDS011;3173;48.204;11.612;2024-03-08T00:25:02;20.63;;;12.23;;
6280;SDS011;3173;48.204;11.612;2024-03-08T00:27:29;18.00;;;10.60;;
6280;SDS011;3173;48.204;11.612;2024-03-08T00:29:58;20.73;;;10.50;;
6280;SDS011;3173;48.204;11.612;2024-03-08T00:32:25;19.13;;;10.20;;
6280;SDS011;3173;48.204;11.612;2024-03-08T00:34:52;19.30;;;10.50;;
6280;SDS011;3173;48.204;11.612;2024-03-08T00:37:19;20.50;;;11.30;;
6280;SDS011;3173;48.204;11.612;2024-03-08T00:39:47;20.70;;;12.30;;
6280;SDS011;3173;48.204;11.612;2024-03-08T00:42:14;20.23;;;10.83;;
6280;SDS011;3173;48.204;11.612;2024-03-08T00:44:40;21.90;;;11.27;;
6280;SDS011;3173;48.204;11.612;2024-03-08T00:47:07;19.10;;;10.60;;
6280;SDS011;3173;48.204;11.612;2024-03-08T00:49:33;16.53;;;10.30;;
6280;SDS011;3173;48.204;11.612;2024-03-08T00:51:59;17.47;;;9.67;;
6280;SDS011;3173;48.204;11.612;2024-03-08T00:54:25;19.80;;;11.17;;
6280;SDS011;3173;48.204;11.612;2024-03-08T00:56:51;21.03;;;11.87;;
6280;SDS011;3173;48.204;11.612;2024-03-08T00:59:17;20.50;;;10.83;;
6280;SDS011;3173;48.204;11.612;2024-03-08T01:01:43;21.83;;;11.90;;
6280;SDS011;3173;48.204;11.612;2024-03-08T01:04:10;19.70;;;10.70;;
6280;SDS011;3173;48.204;11.612;2024-03-08T01:06:36;20.07;;;11.97;;
6280;SDS011;3173;48.204;11.612;2024-03-08T01:09:02;20.97;;;11.60;;
6280;SDS011;3173;48.204;11.612;2024-03-08T01:11:32;21.03;;;11.10;;
6280;SDS011;3173;48.204;11.612;2024-03-08T01:13:58;21.20;;;11.80;;
6280;SDS011;3173;48.204;11.612;2024-03-08T01:16:24;19.90;;;11.10;;
6280;SDS011;3173;48.204;11.612;2024-03-08T01:18:50;22.07;;;11.80;;
6280;SDS011;3173;48.204;11.612;2024-03-08T01:21:16;20.30;;;11.00;;
6280;SDS011;3173;48.204;11.612;2024-03-08T01:23:43;18.80;;;10.30;;
6280;SDS011;3173;48.204;11.612;2024-03-08T01:26:09;21.93;;;11.47;;
6280;SDS011;3173;48.204;11.612;2024-03-08T01:28:35;23.60;;;12.20;;
6280;SDS011;3173;48.204;11.612;2024-03-08T01:31:01;23.00;;;11.50;;
6280;SDS011;3173;48.204;11.612;2024-03-08T01:33:28;20.57;;;11.87;;
6280;SDS011;3173;48.204;11.612;2024-03-08T01:35:56;22.87;;;12.50;;
6280;SDS011;3173;48.204;11.612;2024-03-08T01:38:23;17.60;;;11.40;;
6280;SDS011;3173;48.204;11.612;2024-03-08T01:40:49;20.10;;;11.60;;
6280;SDS011;3173;48.204;11.612;2024-03-08T01:45:42;23.20;;;10.93;;
6280;SDS011;3173;48.204;11.612;2024-03-08T01:48:08;25.80;;;11.73;;
6280;SDS011;3173;48.204;11.612;2024-03-08T01:50:35;24.10;;;12.23;;
6280;SDS011;3173;48.204;11.612;2024-03-08T01:53:02;22.60;;;11.17;;
6280;SDS011;3173;48.204;11.612;2024-03-08T01:55:28;25.80;;;12.90;;
6280;SDS011;3173;48.204;11.612;2024-03-08T01:57:54;21.70;;;11.93;;
6280;SDS011;3173;48.204;11.612;2024-03-08T02:00:21;19.30;;;11.80;;
6280;SDS011;3173;48.204;11.612;2024-03-08T02:02:48;21.17;;;12.17;;
6280;SDS011;3173;48.204;11.612;2024-03-08T02:05:15;18.57;;;11.17;;
6280;SDS011;3173;48.204;11.612;2024-03-08T02:07:41;21.20;;;12.47;;
6280;SDS011;3173;48.204;11.612;2024-03-08T02:10:09;23.20;;;11.73;;
6280;SDS011;3173;48.204;11.612;2024-03-08T02:12:37;19.90;;;12.27;;
6280;SDS011;3173;48.204;11.612;2024-03-08T02:15:04;23.53;;;13.60;;
6280;SDS011;3173;48.204;11.612;2024-03-08T02:17:31;21.70;;;11.63;;
6280;SDS011;3173;48.204;11.612;2024-03-08T02:20:01;23.47;;;13.00;;
6280;SDS011;3173;48.204;11.612;2024-03-08T02:22:28;23.00;;;11.00;;
6280;SDS011;3173;48.204;11.612;2024-03-08T02:24:55;21.70;;;12.63;;
6280;SDS011;3173;48.204;11.612;2024-03-08T02:27:25;24.43;;;13.00;;
6280;SDS011;3173;48.204;11.612;2024-03-08T02:29:52;24.23;;;13.33;;
6280;SDS011;3173;48.204;11.612;2024-03-08T02:32:23;22.67;;;12.83;;
6280;SDS011;3173;48.204;11.612;2024-03-08T02:34:50;19.90;;;11.53;;
6280;SDS011;3173;48.204;11.612;2024-03-08T02:37:16;28.10;;;13.83;;
6280;SDS011;3173;48.204;11.612;2024-03-08T02:39:43;22.00;;;12.00;;
6280;SDS011;3173;48.204;11.612;2024-03-08T02:42:10;20.60;;;12.77;;
6280;SDS011;3173;48.204;11.612;2024-03-08T02:44:36;26.20;;;13.30;;
6280;SDS011;3173;48.204;11.612;2024-03-08T02:47:02;22.93;;;12.67;;
6280;SDS011;3173;48.204;11.612;2024-03-08T02:49:29;24.43;;;13.43;;
6280;SDS011;3173;48.204;11.612;2024-03-08T02:51:55;23.47;;;13.70;;
6280;SDS011;3173;48.204;11.612;2024-03-08T02:54:22;27.13;;;14.20;;
6280;SDS011;3173;48.204;11.612;2024-03-08T02:56:49;24.88;;;12.73;;
6280;SDS011;3173;48.204;11.612;2024-03-08T02:59:18;23.37;;;13.10;;
6280;SDS011;3173;48.204;11.612;2024-03-08T03:01:44;21.77;;;11.87;;
6280;SDS011;3173;48.204;11.612;2024-03-08T03:04:10;23.80;;;13.10;;
6280;SDS011;3173;48.204;11.612;2024-03-08T03:06:36;27.47;;;14.27;;
6280;SDS011;3173;48.204;11.612;2024-03-08T03:09:02;24.10;;;13.70;;
6280;SDS011;3173;48.204;11.612;2024-03-08T03:11:31;25.27;;;14.80;;
6280;SDS011;3173;48.204;11.612;2024-03-08T03:13:57;23.80;;;12.60;;
6280;SDS011;3173;48.204;11.612;2024-03-08T03:16:23;23.60;;;13.43;;
6280;SDS011;3173;48.204;11.612;2024-03-08T03:18:49;25.03;;;14.37;;
6280;SDS011;3173;48.204;11.612;2024-03-08T03:21:16;26.40;;;14.23;;
6280;SDS011;3173;48.204;11.612;2024-03-08T03:23:42;29.17;;;14.40;;
6280;SDS011;3173;48.204;11.612;2024-03-08T03:26:09;27.48;;;14.55;;
6280;SDS011;3173;48.204;11.612;2024-03-08T03:28:38;25.07;;;13.80;;
6280;SDS011;3173;48.204;11.612;2024-03-08T03:31:07;22.88;;;13.80;;
6280;SDS011;3173;48.204;11.612;2024-03-08T03:33:39;26.87;;;14.07;;
6280;SDS011;3173;48.204;11.612;2024-03-08T03:36:05;29.47;;;13.50;;
6280;SDS011;3173;48.204;11.612;2024-03-08T03:38:33;24.10;;;13.65;;
6280;SDS011;3173;48.204;11.612;2024-03-08T03:41:00;25.83;;;14.00;;
6280;SDS011;3173;48.204;11.612;2024-03-08T03:43:35;26.95;;;14.30;;
6280;SDS011;3173;48.204;11.612;2024-03-08T03:46:05;27.60;;;14.30;;
6280;SDS011;3173;48.204;11.612;2024-03-08T03:48:31;28.00;;;15.63;;
6280;SDS011;3173;48.204;11.612;2024-03-08T03:50:57;21.53;;;13.37;;
6280;SDS011;3173;48.204;11.612;2024-03-08T03:53:23;26.80;;;14.50;;
6280;SDS011;3173;48.204;11.612;2024-03-08T03:55:51;24.60;;;13.83;;
6280;SDS011;3173;48.204;11.612;2024-03-08T03:58:17;29.40;;;15.23;;
6280;SDS011;3173;48.204;11.612;2024-03-08T04:00:47;28.40;;;14.05;;
6280;SDS011;3173;48.204;11.612;2024-03-08T04:03:14;30.13;;;14.53;;
6280;SDS011;3173;48.204;11.612;2024-03-08T04:05:41;26.02;;;13.77;;
6280;SDS011;3173;48.204;11.612;2024-03-08T04:08:07;29.90;;;14.60;;
6280;SDS011;3173;48.204;11.612;2024-03-08T04:10:34;28.13;;;14.95;;
6280;SDS011;3173;48.204;11.612;2024-03-08T04:13:00;26.58;;;14.55;;
6280;SDS011;3173;48.204;11.612;2024-03-08T04:15:26;29.50;;;14.70;;
6280;SDS011;3173;48.204;11.612;2024-03-08T04:17:52;34.28;;;16.70;;
6280;SDS011;3173;48.204;11.612;2024-03-08T04:20:19;25.55;;;14.60;;
6280;SDS011;3173;48.204;11.612;2024-03-08T04:22:46;29.42;;;15.55;;
6280;SDS011;3173;48.204;11.612;2024-03-08T04:25:14;31.55;;;16.05;;
6280;SDS011;3173;48.204;11.612;2024-03-08T04:27:41;28.75;;;15.93;;
6280;SDS011;3173;48.204;11.612;2024-03-08T04:30:07;28.63;;;16.13;;
6280;SDS011;3173;48.204;11.612;2024-03-08T04:32:34;32.47;;;17.50;;
6280;SDS011;3173;48.204;11.612;2024-03-08T04:35:00;32.75;;;16.55;;
6280;SDS011;3173;48.204;11.612;2024-03-08T04:37:28;29.75;;;16.40;;
6280;SDS011;3173;48.204;11.612;2024-03-08T04:39:57;33.88;;;17.58;;
6280;SDS011;3173;48.204;11.612;2024-03-08T04:42:24;34.75;;;17.85;;
6280;SDS011;3173;48.204;11.612;2024-03-08T04:44:50;31.73;;;17.58;;
6280;SDS011;3173;48.204;11.612;2024-03-08T04:47:16;28.58;;;16.63;;
6280;SDS011;3173;48.204;11.612;2024-03-08T04:49:43;30.58;;;17.58;;
6280;SDS011;3173;48.204;11.612;2024-03-08T04:52:09;29.02;;;17.67;;
6280;SDS011;3173;48.204;11.612;2024-03-08T04:54:35;31.13;;;16.10;;
6280;SDS011;3173;48.204;11.612;2024-03-08T04:57:01;31.80;;;16.90;;
6280;SDS011;3173;48.204;11.612;2024-03-08T04:59:29;36.60;;;19.08;;
6280;SDS011;3173;48.204;11.612;2024-03-08T05:01:55;35.08;;;18.40;;
6280;SDS011;3173;48.204;11.612;2024-03-08T05:04:22;35.27;;;19.00;;
6280;SDS011;3173;48.204;11.612;2024-03-08T05:06:48;36.80;;;19.00;;
6280;SDS011;3173;48.204;11.612;2024-03-08T05:09:14;39.15;;;19.35;;
6280;SDS011;3173;48.204;11.612;2024-03-08T05:11:41;42.63;;;18.73;;
6280;SDS011;3173;48.204;11.612;2024-03-08T05:14:08;45.38;;;20.55;;
6280;SDS011;3173;48.204;11.612;2024-03-08T05:16:34;40.73;;;19.37;;
6280;SDS011;3173;48.204;11.612;2024-03-08T05:19:01;39.85;;;19.65;;
6280;SDS011;3173;48.204;11.612;2024-03-08T05:21:27;39.40;;;19.58;;
6280;SDS011;3173;48.204;11.612;2024-03-08T05:23:54;38.85;;;18.83;;
6280;SDS011;3173;48.204;11.612;2024-03-08T05:26:20;35.78;;;18.90;;
6280;SDS011;3173;48.204;11.612;2024-03-08T05:28:47;41.28;;;20.77;;
6280;SDS011;3173;48.204;11.612;2024-03-08T05:31:20;37.45;;;20.65;;
6280;SDS011;3173;48.204;11.612;2024-03-08T05:33:49;35.97;;;19.57;;
6280;SDS011;3173;48.204;11.612;2024-03-08T05:36:16;43.70;;;21.27;;
6280;SDS011;3173;48.204;11.612;2024-03-08T05:38:45;38.38;;;20.67;;
6280;SDS011;3173;48.204;11.612;2024-03-08T05:41:11;41.47;;;21.92;;
6280;SDS011;3173;48.204;11.612;2024-03-08T05:43:38;42.75;;;21.33;;
6280;SDS011;3173;48.204;11.612;2024-03-08T05:46:04;41.88;;;20.98;;
6280;SDS011;3173;48.204;11.612;2024-03-08T05:48:30;43.75;;;21.98;;
6280;SDS011;3173;48.204;11.612;2024-03-08T05:51:00;37.75;;;20.50;;
6280;SDS011;3173;48.204;11.612;2024-03-08T05:53:27;44.55;;;21.58;;
6280;SDS011;3173;48.204;11.612;2024-03-08T05:55:56;47.70;;;22.75;;
6280;SDS011;3173;48.204;11.612;2024-03-08T05:58:22;42.67;;;20.73;;
6280;SDS011;3173;48.204;11.612;2024-03-08T06:00:49;45.80;;;21.07;;
6280;SDS011;3173;48.204;11.612;2024-03-08T06:03:15;44.93;;;21.30;;
6280;SDS011;3173;48.204;11.612;2024-03-08T06:05:41;43.97;;;22.10;;
6280;SDS011;3173;48.204;11.612;2024-03-08T06:08:07;46.15;;;26.02;;
6280;SDS011;3173;48.204;11.612;2024-03-08T06:10:33;42.53;;;23.57;;
6280;SDS011;3173;48.204;11.612;2024-03-08T06:13:00;47.47;;;21.83;;
6280;SDS011;3173;48.204;11.612;2024-03-08T06:15:27;40.60;;;22.70;;
6280;SDS011;3173;48.204;11.612;2024-03-08T06:17:53;46.93;;;22.97;;
6280;SDS011;3173;48.204;11.612;2024-03-08T06:20:19;42.53;;;21.60;;
6280;SDS011;3173;48.204;11.612;2024-03-08T06:22:45;52.93;;;23.17;;
6280;SDS011;3173;48.204;11.612;2024-03-08T06:25:11;44.57;;;22.63;;
6280;SDS011;3173;48.204;11.612;2024-03-08T06:27:42;44.00;;;21.23;;
6280;SDS011;3173;48.204;11.612;2024-03-08T06:30:08;43.80;;;20.83;;
6280;SDS011;3173;48.204;11.612;2024-03-08T06:32:35;45.67;;;20.87;;
6280;SDS011;3173;48.204;11.612;2024-03-08T06:35:02;48.73;;;22.13;;
6280;SDS011;3173;48.204;11.612;2024-03-08T06:37:31;49.65;;;23.35;;
6280;SDS011;3173;48.204;11.612;2024-03-08T06:39:57;43.10;;;20.40;;
6280;SDS011;3173;48.204;11.612;2024-03-08T06:42:23;47.75;;;21.67;;
6280;SDS011;3173;48.204;11.612;2024-03-08T06:44:50;47.53;;;23.33;;
6280;SDS011;3173;48.204;11.612;2024-03-08T06:47:16;48.42;;;23.00;;
6280;SDS011;3173;48.204;11.612;2024-03-08T06:49:42;47.30;;;23.10;;
6280;SDS011;3173;48.204;11.612;2024-03-08T06:52:09;47.65;;;21.65;;
6280;SDS011;3173;48.204;11.612;2024-03-08T06:54:35;43.00;;;22.70;;
6280;SDS011;3173;48.204;11.612;2024-03-08T06:57:05;44.37;;;21.03;;
6280;SDS011;3173;48.204;11.612;2024-03-08T06:59:31;46.77;;;21.70;;
6280;SDS011;3173;48.204;11.612;2024-03-08T07:01:58;54.03;;;22.03;;
6280;SDS011;3173;48.204;11.612;2024-03-08T07:04:26;44.07;;;21.03;;
6280;SDS011;3173;48.204;11.612;2024-03-08T07:06:55;47.90;;;23.50;;
6280;SDS011;3173;48.204;11.612;2024-03-08T07:09:22;46.73;;;23.23;;
6280;SDS011;3173;48.204;11.612;2024-03-08T07:11:49;44.70;;;21.90;;
6280;SDS011;3173;48.204;11.612;2024-03-08T07:14:22;47.00;;;23.13;;
6280;SDS011;3173;48.204;11.612;2024-03-08T07:16:49;45.50;;;21.10;;
6280;SDS011;3173;48.204;11.612;2024-03-08T07:19:16;50.83;;;22.73;;
6280;SDS011;3173;48.204;11.612;2024-03-08T07:21:45;46.70;;;21.90;;
6280;SDS011;3173;48.204;11.612;2024-03-08T07:24:12;42.30;;;20.43;;
6280;SDS011;3173;48.204;11.612;2024-03-08T07:26:42;44.67;;;21.77;;
6280;SDS011;3173;48.204;11.612;2024-03-08T07:29:08;50.60;;;22.60;;
6280;SDS011;3173;48.204;11.612;2024-03-08T07:31:34;39.17;;;19.87;;
6280;SDS011;3173;48.204;11.612;2024-03-08T07:34:15;39.27;;;19.93;;
6280;SDS011;3173;48.204;11.612;2024-03-08T07:36:42;40.93;;;20.10;;
6280;SDS011;3173;48.204;11.612;2024-03-08T07:39:08;46.73;;;20.30;;
6280;SDS011;3173;48.204;11.612;2024-03-08T07:41:37;44.47;;;21.00;;
6280;SDS011;3173;48.204;11.612;2024-03-08T07:44:05;43.83;;;19.23;;
6280;SDS011;3173;48.204;11.612;2024-03-08T07:46:32;40.93;;;20.60;;
6280;SDS011;3173;48.204;11.612;2024-03-08T07:48:59;35.93;;;18.23;;
6280;SDS011;3173;48.204;11.612;2024-03-08T07:51:25;37.00;;;19.23;;
6280;SDS011;3173;48.204;11.612;2024-03-08T07:53:51;34.80;;;19.20;;
6280;SDS011;3173;48.204;11.612;2024-03-08T07:56:18;36.20;;;19.30;;
6280;SDS011;3173;48.204;11.612;2024-03-08T07:58:46;36.17;;;18.10;;
6280;SDS011;3173;48.204;11.612;2024-03-08T08:01:16;37.57;;;19.27;;
6280;SDS011;3173;48.204;11.612;2024-03-08T08:03:42;38.97;;;19.03;;
6280;SDS011;3173;48.204;11.612;2024-03-08T08:06:08;34.83;;;18.60;;
6280;SDS011;3173;48.204;11.612;2024-03-08T08:08:35;35.43;;;18.70;;
6280;SDS011;3173;48.204;11.612;2024-03-08T08:11:01;34.10;;;19.50;;
6280;SDS011;3173;48.204;11.612;2024-03-08T08:13:27;36.80;;;19.20;;
6280;SDS011;3173;48.204;11.612;2024-03-08T08:15:57;40.13;;;19.63;;
6280;SDS011;3173;48.204;11.612;2024-03-08T08:18:23;35.83;;;18.67;;
6280;SDS011;3173;48.204;11.612;2024-03-08T08:20:50;37.20;;;20.20;;
6280;SDS011;3173;48.204;11.612;2024-03-08T08:23:20;31.90;;;17.77;;
6280;SDS011;3173;48.204;11.612;2024-03-08T08:25:46;34.90;;;17.50;;
6280;SDS011;3173;48.204;11.612;2024-03-08T08:28:15;31.90;;;18.27;;
6280;SDS011;3173;48.204;11.612;2024-03-08T08:30:46;34.27;;;18.60;;
6280;SDS011;3173;48.204;11.612;2024-03-08T08:33:14;31.50;;;18.10;;
6280;SDS011;3173;48.204;11.612;2024-03-08T08:35:40;37.50;;;18.47;;
6280;SDS011;3173;48.204;11.612;2024-03-08T08:38:07;36.93;;;16.70;;
6280;SDS011;3173;48.204;11.612;2024-03-08T08:40:34;32.07;;;17.63;;
6280;SDS011;3173;48.204;11.612;2024-03-08T08:43:02;31.17;;;17.30;;
6280;SDS011;3173;48.204;11.612;2024-03-08T08:45:32;31.13;;;17.40;;
6280;SDS011;3173;48.204;11.612;2024-03-08T08:47:58;30.17;;;17.53;;
6280;SDS011;3173;48.204;11.612;2024-03-08T08:50:25;32.53;;;17.97;;
6280;SDS011;3173;48.204;11.612;2024-03-08T08:52:53;34.27;;;18.67;;
6280;SDS011;3173;48.204;11.612;2024-03-08T08:55:19;30.93;;;17.90;;
6280;SDS011;3173;48.204;11.612;2024-03-08T08:57:49;30.07;;;16.97;;
6280;SDS011;3173;48.204;11.612;2024-03-08T09:00:17;31.23;;;16.97;;
6280;SDS011;3173;48.204;11.612;2024-03-08T09:02:43;28.73;;;17.10;;
6280;SDS011;3173;48.204;11.612;2024-03-08T09:05:10;28.90;;;16.57;;
6280;SDS011;3173;48.204;11.612;2024-03-08T09:07:44;30.13;;;17.60;;
6280;SDS011;3173;48.204;11.612;2024-03-08T09:10:11;34.10;;;18.83;;
6280;SDS011;3173;48.204;11.612;2024-03-08T09:12:39;33.67;;;20.17;;
6280;SDS011;3173;48.204;11.612;2024-03-08T09:15:05;32.23;;;19.87;;
6280;SDS011;3173;48.204;11.612;2024-03-08T09:17:34;35.30;;;19.60;;
6280;SDS011;3173;48.204;11.612;2024-03-08T09:20:01;35.07;;;21.10;;
6280;SDS011;3173;48.204;11.612;2024-03-08T09:22:29;30.93;;;18.80;;
6280;SDS011;3173;48.204;11.612;2024-03-08T09:24:55;32.50;;;20.90;;
6280;SDS011;3173;48.204;11.612;2024-03-08T09:27:22;30.93;;;18.47;;
6280;SDS011;3173;48.204;11.612;2024-03-08T09:29:49;32.20;;;19.40;;
6280;SDS011;3173;48.204;11.612;2024-03-08T09:32:15;28.77;;;18.57;;
6280;SDS011;3173;48.204;11.612;2024-03-08T09:34:41;30.93;;;19.90;;
6280;SDS011;3173;48.204;11.612;2024-03-08T09:37:08;25.87;;;17.13;;
6280;SDS011;3173;48.204;11.612;2024-03-08T09:39:35;25.77;;;16.93;;
6280;SDS011;3173;48.204;11.612;2024-03-08T09:42:01;26.90;;;16.80;;
6280;SDS011;3173;48.204;11.612;2024-03-08T09:44:27;28.10;;;18.20;;
6280;SDS011;3173;48.204;11.612;2024-03-08T09:46:57;29.50;;;19.23;;
6280;SDS011;3173;48.204;11.612;2024-03-08T09:49:24;24.50;;;17.50;;
6280;SDS011;3173;48.204;11.612;2024-03-08T09:51:50;21.07;;;15.83;;
6280;SDS011;3173;48.204;11.612;2024-03-08T09:54:16;27.33;;;18.60;;
6280;SDS011;3173;48.204;11.612;2024-03-08T09:56:45;24.50;;;18.20;;
6280;SDS011;3173;48.204;11.612;2024-03-08T09:59:13;26.07;;;17.73;;
6280;SDS011;3173;48.204;11.612;2024-03-08T10:02:05;21.70;;;15.83;;
6280;SDS011;3173;48.204;11.612;2024-03-08T10:04:31;25.10;;;17.87;;
6280;SDS011;3173;48.204;11.612;2024-03-08T10:06:58;25.50;;;17.80;;
6280;SDS011;3173;48.204;11.612;2024-03-08T10:09:25;21.50;;;16.07;;
6280;SDS011;3173;48.204;11.612;2024-03-08T10:11:58;24.60;;;18.27;;
6280;SDS011;3173;48.204;11.612;2024-03-08T10:14:30;23.00;;;17.63;;
6280;SDS011;3173;48.204;11.612;2024-03-08T10:16:57;23.70;;;17.00;;
6280;SDS011;3173;48.204;11.612;2024-03-08T10:19:25;21.57;;;16.97;;
6280;SDS011;3173;48.204;11.612;2024-03-08T10:21:51;22.60;;;16.67;;
6280;SDS011;3173;48.204;11.612;2024-03-08T10:24:24;25.43;;;16.43;;
6280;SDS011;3173;48.204;11.612;2024-03-08T10:26:55;25.27;;;16.67;;
6280;SDS011;3173;48.204;11.612;2024-03-08T10:29:25;24.10;;;17.03;;
6280;SDS011;3173;48.204;11.612;2024-03-08T10:31:51;22.10;;;16.57;;
6280;SDS011;3173;48.204;11.612;2024-03-08T10:34:17;23.70;;;17.07;;
6280;SDS011;3173;48.204;11.612;2024-03-08T10:36:44;23.93;;;16.83;;
6280;SDS011;3173;48.204;11.612;2024-03-08T10:39:17;20.77;;;14.63;;
6280;SDS011;3173;48.204;11.612;2024-03-08T10:41:48;21.00;;;16.07;;
6280;SDS011;3173;48.204;11.612;2024-03-08T10:45:05;22.40;;;16.70;;
6280;SDS011;3173;48.204;11.612;2024-03-08T10:47:27;19.73;;;15.00;;
6280;SDS011;3173;48.204;11.612;2024-03-08T10:50:08;21.00;;;14.87;;
6280;SDS011;3173;48.204;11.612;2024-03-08T10:52:38;20.40;;;14.07;;
6280;SDS011;3173;48.204;11.612;2024-03-08T10:55:04;22.83;;;15.40;;
6280;SDS011;3173;48.204;11.612;2024-03-08T10:57:37;19.30;;;14.60;;
6280;SDS011;3173;48.204;11.612;2024-03-08T11:00:05;19.53;;;14.17;;
6280;SDS011;3173;48.204;11.612;2024-03-08T11:02:35;18.17;;;13.60;;
6280;SDS011;3173;48.204;11.612;2024-03-08T11:05:03;18.70;;;14.20;;
6280;SDS011;3173;48.204;11.612;2024-03-08T11:07:34;20.57;;;14.17;;
6280;SDS011;3173;48.204;11.612;2024-03-08T11:10:03;19.50;;;13.53;;
6280;SDS011;3173;48.204;11.612;2024-03-08T11:12:38;18.90;;;13.90;;
6280;SDS011;3173;48.204;11.612;2024-03-08T11:15:11;18.20;;;13.40;;
6280;SDS011;3173;48.204;11.612;2024-03-08T11:20:11;17.20;;;13.20;;
6280;SDS011;3173;48.204;11.612;2024-03-08T11:23:03;19.50;;;14.47;;
6280;SDS011;3173;48.204;11.612;2024-03-08T11:30:44;15.87;;;12.27;;
6280;SDS011;3173;48.204;11.612;2024-03-08T11:33:12;17.83;;;12.80;;
6280;SDS011;3173;48.204;11.612;2024-03-08T11:35:39;19.57;;;13.97;;
6280;SDS011;3173;48.204;11.612;2024-03-08T11:38:07;16.40;;;12.30;;
6280;SDS011;3173;48.204;11.612;2024-03-08T11:40:34;18.70;;;12.87;;
6280;SDS011;3173;48.204;11.612;2024-03-08T11:43:00;18.90;;;13.00;;
6280;SDS011;3173;48.204;11.612;2024-03-08T11:45:39;17.27;;;12.60;;
6280;SDS011;3173;48.204;11.612;2024-03-08T11:48:06;19.10;;;13.60;;
6280;SDS011;3173;48.204;11.612;2024-03-08T11:50:32;18.57;;;13.20;;
6280;SDS011;3173;48.204;11.612;2024-03-08T11:53:04;18.10;;;13.93;;
6280;SDS011;3173;48.204;11.612;2024-03-08T11:55:33;19.83;;;14.43;;
6280;SDS011;3173;48.204;11.612;2024-03-08T11:58:03;20.93;;;13.20;;
6280;SDS011;3173;48.204;11.612;2024-03-08T12:00:30;19.00;;;13.70;;
6280;SDS011;3173;48.204;11.612;2024-03-08T12:05:29;20.27;;;15.03;;
6280;SDS011;3173;48.204;11.612;2024-03-08T12:07:59;17.43;;;13.33;;
6280;SDS011;3173;48.204;11.612;2024-03-08T12:10:25;20.10;;;13.57;;
6280;SDS011;3173;48.204;11.612;2024-03-08T12:12:53;19.17;;;14.33;;
6280;SDS011;3173;48.204;11.612;2024-03-08T12:15:20;24.50;;;15.63;;
6280;SDS011;3173;48.204;11.612;2024-03-08T12:17:47;21.80;;;14.70;;
6280;SDS011;3173;48.204;11.612;2024-03-08T12:20:21;19.20;;;13.70;;
6280;SDS011;3173;48.204;11.612;2024-03-08T12:22:48;17.73;;;13.30;;
6280;SDS011;3173;48.204;11.612;2024-03-08T12:25:14;17.77;;;13.47;;
6280;SDS011;3173;48.204;11.612;2024-03-08T12:27:41;18.47;;;13.50;;
6280;SDS011;3173;48.204;11.612;2024-03-08T12:30:23;20.67;;;14.47;;
6280;SDS011;3173;48.204;11.612;2024-03-08T12:32:52;17.17;;;13.27;;
6280;SDS011;3173;48.204;11.612;2024-03-08T12:35:22;17.33;;;13.73;;
6280;SDS011;3173;48.204;11.612;2024-03-08T12:37:49;20.17;;;13.17;;
6280;SDS011;3173;48.204;11.612;2024-03-08T12:40:16;19.20;;;12.43;;
6280;SDS011;3173;48.204;11.612;2024-03-08T12:42:43;18.40;;;13.20;;
6280;SDS011;3173;48.204;11.612;2024-03-08T12:45:12;16.10;;;11.53;;
6280;SDS011;3173;48.204;11.612;2024-03-08T12:47:38;14.97;;;11.27;;
6280;SDS011;3173;48.204;11.612;2024-03-08T12:50:07;17.97;;;12.50;;
6280;SDS011;3173;48.204;11.612;2024-03-08T12:52:33;16.90;;;11.07;;
6280;SDS011;3173;48.204;11.612;2024-03-08T12:55:00;17.50;;;11.73;;
6280;SDS011;3173;48.204;11.612;2024-03-08T12:57:31;16.70;;;11.00;;
6280;SDS011;3173;48.204;11.612;2024-03-08T12:59:58;18.73;;;11.80;;
6280;SDS011;3173;48.204;11.612;2024-03-08T13:02:24;18.03;;;12.03;;
6280;SDS011;3173;48.204;11.612;2024-03-08T13:04:51;17.70;;;11.77;;
6280;SDS011;3173;48.204;11.612;2024-03-08T13:07:22;17.40;;;11.77;;
6280;SDS011;3173;48.204;11.612;2024-03-08T13:09:54;19.90;;;12.40;;
6280;SDS011;3173;48.204;11.612;2024-03-08T13:12:20;24.70;;;12.43;;
6280;SDS011;3173;48.204;11.612;2024-03-08T13:14:48;17.40;;;11.60;;
6280;SDS011;3173;48.204;11.612;2024-03-08T13:17:15;17.47;;;11.97;;
6280;SDS011;3173;48.204;11.612;2024-03-08T13:19:43;27.47;;;12.87;;
6280;SDS011;3173;48.204;11.612;2024-03-08T13:22:09;15.33;;;11.40;;
6280;SDS011;3173;48.204;11.612;2024-03-08T13:24:38;17.97;;;12.50;;
6280;SDS011;3173;48.204;11.612;2024-03-08T13:27:06;17.60;;;11.97;;
6280;SDS011;3173;48.204;11.612;2024-03-08T13:29:44;20.37;;;12.20;;
6280;SDS011;3173;48.204;11.612;2024-03-08T13:32:11;18.07;;;11.53;;
6280;SDS011;3173;48.204;11.612;2024-03-08T13:34:40;19.90;;;12.83;;
6280;SDS011;3173;48.204;11.612;2024-03-08T13:37:06;19.03;;;12.50;;
6280;SDS011;3173;48.204;11.612;2024-03-08T13:39:35;18.93;;;12.53;;
6280;SDS011;3173;48.204;11.612;2024-03-08T13:42:12;18.83;;;13.53;;
6280;SDS011;3173;48.204;11.612;2024-03-08T13:44:43;21.10;;;12.27;;
6280;SDS011;3173;48.204;11.612;2024-03-08T13:47:09;21.40;;;12.93;;
6280;SDS011;3173;48.204;11.612;2024-03-08T13:49:37;20.60;;;12.67;;
6280;SDS011;3173;48.204;11.612;2024-03-08T13:52:03;19.00;;;12.47;;
6280;SDS011;3173;48.204;11.612;2024-03-08T13:54:29;21.97;;;12.50;;
6280;SDS011;3173;48.204;11.612;2024-03-08T13:56:56;18.97;;;11.50;;
6280;SDS011;3173;48.204;11.612;2024-03-08T13:59:22;18.00;;;11.73;;
6280;SDS011;3173;48.204;11.612;2024-03-08T14:01:49;19.13;;;12.30;;
6280;SDS011;3173;48.204;11.612;2024-03-08T14:04:15;16.80;;;11.00;;
6280;SDS011;3173;48.204;11.612;2024-03-08T14:06:45;20.67;;;11.50;;
6280;SDS011;3173;48.204;11.612;2024-03-08T14:09:11;19.90;;;11.87;;
6280;SDS011;3173;48.204;11.612;2024-03-08T14:11:42;17.17;;;11.77;;
6280;SDS011;3173;48.204;11.612;2024-03-08T14:14:11;19.13;;;11.90;;
6280;SDS011;3173;48.204;11.612;2024-03-08T14:16:38;17.97;;;11.20;;
6280;SDS011;3173;48.204;11.612;2024-03-08T14:19:04;15.53;;;10.70;;
6280;SDS011;3173;48.204;11.612;2024-03-08T14:21:34;16.80;;;10.67;;
6280;SDS011;3173;48.204;11.612;2024-03-08T14:24:00;17.60;;;11.37;;
6280;SDS011;3173;48.204;11.612;2024-03-08T14:26:26;18.40;;;11.70;;
6280;SDS011;3173;48.204;11.612;2024-03-08T14:28:52;20.00;;;11.40;;
6280;SDS011;3173;48.204;11.612;2024-03-08T14:31:19;17.03;;;10.23;;
6280;SDS011;3173;48.204;11.612;2024-03-08T14:33:48;20.03;;;11.53;;
6280;SDS011;3173;48.204;11.612;2024-03-08T14:36:15;17.83;;;11.50;;
6280;SDS011;3173;48.204;11.612;2024-03-08T14:38:48;17.67;;;11.20;;
6280;SDS011;3173;48.204;11.612;2024-03-08T14:41:14;22.37;;;12.50;;
6280;SDS011;3173;48.204;11.612;2024-03-08T14:43:43;17.73;;;11.23;;
6280;SDS011;3173;48.204;11.612;2024-03-08T14:46:11;18.27;;;11.40;;
6280;SDS011;3173;48.204;11.612;2024-03-08T14:48:43;14.93;;;10.40;;